sensor_id;sensor_type;location;lat;lon;timestamp;pressure;altitude;pressure_sealevel;temperature;humidity
40574;BME280;26283;49.020;8.644;2023-05-22T00:00:21;98856.63;;;21.20;54.14
40574;BME280;26283;49.020;8.644;2023-05-22T00:02:47;98856.91;;;21.19;54.18
40574;BME280;26283;49.020;8.644;2023-05-22T00:05:15;98855.28;;;21.18;54.21
40574;BME280;26283;49.020;8.644;2023-05-22T00:07:42;98853.66;;;21.17;54.23
40574;BME280;26283;49.020;8.644;2023-05-22T00:10:08;98853.94;;;21.15;54.26
40574;BME280;26283;49.020;8.644;2023-05-22T00:12:34;98853.13;;;21.15;54.28
40574;BME280;26283;49.020;8.644;2023-05-22T00:14:59;98852.00;;;21.16;54.30
40574;BME280;26283;49.020;8.644;2023-05-22T00:17:25;98853.41;;;21.13;54.31
40574;BME280;26283;49.020;8.644;2023-05-22T00:19:51;98856.16;;;21.13;54.33
40574;BME280;26283;49.020;8.644;2023-05-22T00:22:20;98847.41;;;21.11;54.36
40574;BME280;26283;49.020;8.644;2023-05-22T00:24:45;98852.91;;;21.11;54.38
40574;BME280;26283;49.020;8.644;2023-05-22T00:27:11;98843.88;;;21.11;54.39
40574;BME280;26283;49.020;8.644;2023-05-22T00:29:37;98844.16;;;21.09;54.42
40574;BME280;26283;49.020;8.644;2023-05-22T00:32:02;98848.53;;;21.10;54.44
40574;BME280;26283;49.020;8.644;2023-05-22T00:34:28;98844.47;;;21.08;54.46
40574;BME280;26283;49.020;8.644;2023-05-22T00:36:53;98849.13;;;21.07;54.49
40574;BME280;26283;49.020;8.644;2023-05-22T00:39:18;98846.38;;;21.07;54.51
40574;BME280;26283;49.020;8.644;2023-05-22T00:41:44;98842.00;;;21.06;54.53
40574;BME280;26283;49.020;8.644;2023-05-22T00:44:10;98844.22;;;21.04;54.54
40574;BME280;26283;49.020;8.644;2023-05-22T00:46:36;98841.50;;;21.04;54.57
40574;BME280;26283;49.020;8.644;2023-05-22T00:49:02;98836.31;;;21.03;54.59
40574;BME280;26283;49.020;8.644;2023-05-22T00:51:27;98836.31;;;21.03;54.60
40574;BME280;26283;49.020;8.644;2023-05-22T00:53:53;98835.50;;;21.02;54.62
40574;BME280;26283;49.020;8.644;2023-05-22T00:56:19;98842.41;;;21.00;54.63
40574;BME280;26283;49.020;8.644;2023-05-22T00:58:46;98845.16;;;21.00;54.66
40574;BME280;26283;49.020;8.644;2023-05-22T01:01:11;98849.81;;;20.99;54.68
40574;BME280;26283;49.020;8.644;2023-05-22T01:03:41;98845.72;;;20.97;54.70
40574;BME280;26283;49.020;8.644;2023-05-22T01:06:13;98845.72;;;20.97;54.74
40574;BME280;26283;49.020;8.644;2023-05-22T01:08:39;98848.78;;;20.95;54.75
40574;BME280;26283;49.020;8.644;2023-05-22T01:11:15;98838.62;;;20.96;54.75
40574;BME280;26283;49.020;8.644;2023-05-22T01:33:08;98841.22;;;20.87;54.92
40574;BME280;26283;49.020;8.644;2023-05-22T01:35:38;98846.16;;;20.85;54.91
40574;BME280;26283;49.020;8.644;2023-05-22T01:38:06;98857.13;;;20.85;54.94
40574;BME280;26283;49.020;8.644;2023-05-22T01:40:32;98833.56;;;20.84;54.96
40574;BME280;26283;49.020;8.644;2023-05-22T01:42:58;98838.25;;;20.83;54.56
40574;BME280;26283;49.020;8.644;2023-05-22T01:45:24;98828.69;;;20.81;54.53
40574;BME280;26283;49.020;8.644;2023-05-22T01:47:50;98829.31;;;20.78;54.60
40574;BME280;26283;49.020;8.644;2023-05-22T01:50:15;98830.72;;;20.75;54.54
40574;BME280;26283;49.020;8.644;2023-05-22T01:55:24;98837.88;;;20.71;54.52
40574;BME280;26283;49.020;8.644;2023-05-22T01:57:58;98833.81;;;20.69;54.48
40574;BME280;26283;49.020;8.644;2023-05-22T02:00:27;98836.84;;;20.67;54.52
40574;BME280;26283;49.020;8.644;2023-05-22T02:03:01;98840.69;;;20.66;54.57
40574;BME280;26283;49.020;8.644;2023-05-22T02:05:32;98842.09;;;20.64;54.56
40574;BME280;26283;49.020;8.644;2023-05-22T02:08:01;98836.09;;;20.62;54.54
40574;BME280;26283;49.020;8.644;2023-05-22T02:10:27;98836.09;;;20.62;54.56
40574;BME280;26283;49.020;8.644;2023-05-22T02:12:53;98845.41;;;20.61;54.59
40574;BME280;26283;49.020;8.644;2023-05-22T02:15:19;98844.59;;;20.60;54.65
40574;BME280;26283;49.020;8.644;2023-05-22T02:17:45;98848.72;;;20.58;54.56
40574;BME280;26283;49.020;8.644;2023-05-22T02:20:13;98852.59;;;20.57;54.59
40574;BME280;26283;49.020;8.644;2023-05-22T02:22:44;98853.72;;;20.56;54.64
40574;BME280;26283;49.020;8.644;2023-05-22T02:25:11;98859.19;;;20.56;54.62
40574;BME280;26283;49.020;8.644;2023-05-22T02:27:42;98857.84;;;20.53;54.59
40574;BME280;26283;49.020;8.644;2023-05-22T02:30:09;98852.66;;;20.51;54.59
40574;BME280;26283;49.020;8.644;2023-05-22T02:32:35;98852.66;;;20.51;54.48
40574;BME280;26283;49.020;8.644;2023-05-22T02:35:01;98858.44;;;20.50;54.49
40574;BME280;26283;49.020;8.644;2023-05-22T02:37:27;98866.63;;;20.50;54.46
40574;BME280;26283;49.020;8.644;2023-05-22T02:39:52;98864.19;;;20.48;54.33
40574;BME280;26283;49.020;8.644;2023-05-22T02:42:18;98863.38;;;20.48;54.31
40574;BME280;26283;49.020;8.644;2023-05-22T02:44:43;98859.28;;;20.45;54.32
40574;BME280;26283;49.020;8.644;2023-05-22T02:47:09;98857.66;;;20.44;54.27
40574;BME280;26283;49.020;8.644;2023-05-22T02:49:34;98863.13;;;20.44;54.28
40574;BME280;26283;49.020;8.644;2023-05-22T02:51:59;98857.16;;;20.42;54.26
40574;BME280;26283;49.020;8.644;2023-05-22T02:54:25;98852.78;;;20.41;54.22
40574;BME280;26283;49.020;8.644;2023-05-22T02:56:50;98860.16;;;20.41;54.20
40574;BME280;26283;49.020;8.644;2023-05-22T02:59:16;98850.63;;;20.38;54.17
40574;BME280;26283;49.020;8.644;2023-05-22T03:01:41;98855.00;;;20.39;54.19
40574;BME280;26283;49.020;8.644;2023-05-22T03:04:08;98857.19;;;20.37;54.25
40574;BME280;26283;49.020;8.644;2023-05-22T03:06:33;98859.13;;;20.37;54.30
40574;BME280;26283;49.020;8.644;2023-05-22T03:09:01;98859.38;;;20.35;54.31
40574;BME280;26283;49.020;8.644;2023-05-22T03:11:28;98857.78;;;20.34;54.30
40574;BME280;26283;49.020;8.644;2023-05-22T03:13:53;98862.44;;;20.34;54.27
40574;BME280;26283;49.020;8.644;2023-05-22T03:16:19;98860.00;;;20.32;54.29
40574;BME280;26283;49.020;8.644;2023-05-22T03:18:44;98865.47;;;20.32;54.28
40574;BME280;26283;49.020;8.644;2023-05-22T03:21:10;98866.56;;;20.31;54.31
40574;BME280;26283;49.020;8.644;2023-05-22T03:23:35;98860.28;;;20.31;54.33
40574;BME280;26283;49.020;8.644;2023-05-22T03:26:00;98861.38;;;20.30;54.38
40574;BME280;26283;49.020;8.644;2023-05-22T03:28:26;98861.38;;;20.30;54.44
40574;BME280;26283;49.020;8.644;2023-05-22T03:30:51;98864.41;;;20.28;54.46
40574;BME280;26283;49.020;8.644;2023-05-22T03:33:16;98869.06;;;20.28;54.46
40574;BME280;26283;49.020;8.644;2023-05-22T03:35:42;98872.91;;;20.27;54.43
40574;BME280;26283;49.020;8.644;2023-05-22T03:38:08;98862.25;;;20.25;54.47
40574;BME280;26283;49.020;8.644;2023-05-22T03:40:34;98874.31;;;20.24;54.50
40574;BME280;26283;49.020;8.644;2023-05-22T03:42:59;98864.16;;;20.25;54.45
40574;BME280;26283;49.020;8.644;2023-05-22T03:45:25;98859.81;;;20.24;54.60
40574;BME280;26283;49.020;8.644;2023-05-22T03:47:50;98860.91;;;20.23;54.60
40574;BME280;26283;49.020;8.644;2023-05-22T03:50:16;98866.37;;;20.23;54.63
40574;BME280;26283;49.020;8.644;2023-05-22T03:52:41;98859.28;;;20.22;54.67
40574;BME280;26283;49.020;8.644;2023-05-22T03:55:07;98856.84;;;20.20;54.70
40574;BME280;26283;49.020;8.644;2023-05-22T03:57:32;98849.72;;;20.19;54.76
40574;BME280;26283;49.020;8.644;2023-05-22T03:59:58;98851.66;;;20.18;54.79
40574;BME280;26283;49.020;8.644;2023-05-22T04:02:30;98846.47;;;20.17;54.80
40574;BME280;26283;49.020;8.644;2023-05-22T04:04:55;98853.03;;;20.16;54.91
40574;BME280;26283;49.020;8.644;2023-05-22T04:07:21;98852.75;;;20.17;54.96
40574;BME280;26283;49.020;8.644;2023-05-22T04:09:46;98854.16;;;20.15;54.92
40574;BME280;26283;49.020;8.644;2023-05-22T04:12:11;98855.25;;;20.14;54.96
40574;BME280;26283;49.020;8.644;2023-05-22T04:14:37;98850.91;;;20.13;55.02
40574;BME280;26283;49.020;8.644;2023-05-22T04:17:02;98853.13;;;20.11;55.00
40574;BME280;26283;49.020;8.644;2023-05-22T04:19:28;98864.06;;;20.11;55.13
40574;BME280;26283;49.020;8.644;2023-05-22T04:21:55;98857.78;;;20.10;55.20
40574;BME280;26283;49.020;8.644;2023-05-22T04:24:21;98853.69;;;20.08;55.28
40574;BME280;26283;49.020;8.644;2023-05-22T04:26:48;98868.19;;;20.08;55.41
40574;BME280;26283;49.020;8.644;2023-05-22T04:29:13;98864.94;;;20.06;55.48
40574;BME280;26283;49.020;8.644;2023-05-22T04:31:39;98877.78;;;20.06;55.57
40574;BME280;26283;49.020;8.644;2023-05-22T04:34:05;98873.41;;;20.05;55.54
40574;BME280;26283;49.020;8.644;2023-05-22T04:36:30;98878.38;;;20.03;55.58
40574;BME280;26283;49.020;8.644;2023-05-22T04:38:56;98884.66;;;20.03;55.68
40574;BME280;26283;49.020;8.644;2023-05-22T04:41:21;98881.09;;;20.03;55.67
40574;BME280;26283;49.020;8.644;2023-05-22T04:43:51;98883.03;;;20.02;55.79
40574;BME280;26283;49.020;8.644;2023-05-22T04:46:17;98884.94;;;20.02;55.85
40574;BME280;26283;49.020;8.644;2023-05-22T04:48:42;98884.94;;;20.02;55.91
40574;BME280;26283;49.020;8.644;2023-05-22T04:51:08;98884.41;;;20.00;55.95
40574;BME280;26283;49.020;8.644;2023-05-22T04:53:34;98884.41;;;20.00;55.98
40574;BME280;26283;49.020;8.644;2023-05-22T04:56:00;98886.34;;;19.99;56.04
40574;BME280;26283;49.020;8.644;2023-05-22T04:58:25;98890.97;;;19.99;56.14
40574;BME280;26283;49.020;8.644;2023-05-22T05:00:54;98889.06;;;19.99;56.16
40574;BME280;26283;49.020;8.644;2023-05-22T05:03:22;98892.91;;;19.98;56.24
40574;BME280;26283;49.020;8.644;2023-05-22T05:05:47;98889.34;;;19.98;56.34
40574;BME280;26283;49.020;8.644;2023-05-22T05:08:13;98889.34;;;19.98;56.46
40574;BME280;26283;49.020;8.644;2023-05-22T05:10:38;98890.47;;;19.97;56.48
40574;BME280;26283;49.020;8.644;2023-05-22T05:13:03;98898.66;;;19.97;56.48
40574;BME280;26283;49.020;8.644;2023-05-22T05:15:29;98889.91;;;19.95;56.54
40574;BME280;26283;49.020;8.644;2023-05-22T05:17:55;98889.09;;;19.94;56.62
40574;BME280;26283;49.020;8.644;2023-05-22T05:20:20;98892.94;;;19.93;56.74
40574;BME280;26283;49.020;8.644;2023-05-22T05:22:46;98891.03;;;19.94;56.78
40574;BME280;26283;49.020;8.644;2023-05-22T05:25:12;98893.75;;;19.94;56.86
40574;BME280;26283;49.020;8.644;2023-05-22T05:27:37;98897.59;;;19.93;56.95
40574;BME280;26283;49.020;8.644;2023-05-22T05:30:03;98900.34;;;19.93;57.09
40574;BME280;26283;49.020;8.644;2023-05-22T05:32:29;98886.16;;;19.91;57.21
40574;BME280;26283;49.020;8.644;2023-05-22T05:34:54;98890.81;;;19.90;57.36
40574;BME280;26283;49.020;8.644;2023-05-22T05:37:20;98888.09;;;19.90;57.45
40574;BME280;26283;49.020;8.644;2023-05-22T05:39:46;98897.91;;;19.91;57.50
40574;BME280;26283;49.020;8.644;2023-05-22T05:42:11;98909.97;;;19.90;57.71
40574;BME280;26283;49.020;8.644;2023-05-22T05:44:36;98916.16;;;19.96;57.24
40574;BME280;26283;49.020;8.644;2023-05-22T05:47:02;98906.88;;;19.97;57.02
40574;BME280;26283;49.020;8.644;2023-05-22T05:49:27;98908.50;;;19.98;56.88
40574;BME280;26283;49.020;8.644;2023-05-22T05:51:53;98908.50;;;19.98;56.80
40574;BME280;26283;49.020;8.644;2023-05-22T05:54:19;98916.69;;;19.98;56.80
40574;BME280;26283;49.020;8.644;2023-05-22T05:56:45;98915.06;;;19.97;56.81
40574;BME280;26283;49.020;8.644;2023-05-22T05:59:10;98919.72;;;19.96;56.79
40574;BME280;26283;49.020;8.644;2023-05-22T06:01:36;98919.72;;;19.96;56.78
40574;BME280;26283;49.020;8.644;2023-05-22T06:04:02;98909.88;;;19.95;56.77
40574;BME280;26283;49.020;8.644;2023-05-22T06:06:30;98922.75;;;19.95;56.78
40574;BME280;26283;49.020;8.644;2023-05-22T06:09:00;98920.00;;;19.95;56.79
40574;BME280;26283;49.020;8.644;2023-05-22T06:11:25;98929.31;;;19.94;56.77
40574;BME280;26283;49.020;8.644;2023-05-22T06:13:50;98923.03;;;19.93;56.75
40574;BME280;26283;49.020;8.644;2023-05-22T06:16:16;98927.69;;;19.93;56.78
40574;BME280;26283;49.020;8.644;2023-05-22T06:18:41;98928.81;;;19.92;56.77
40574;BME280;26283;49.020;8.644;2023-05-22T06:21:07;98936.19;;;19.91;56.77
40574;BME280;26283;49.020;8.644;2023-05-22T06:23:32;98934.28;;;19.92;56.79
40574;BME280;26283;49.020;8.644;2023-05-22T06:25:57;98938.94;;;19.91;56.81
40574;BME280;26283;49.020;8.644;2023-05-22T06:28:23;98940.84;;;19.91;56.82
40574;BME280;26283;49.020;8.644;2023-05-22T06:30:48;98933.75;;;19.90;56.81
40574;BME280;26283;49.020;8.644;2023-05-22T06:33:13;98936.50;;;19.90;56.82
40574;BME280;26283;49.020;8.644;2023-05-22T06:35:39;98941.97;;;19.90;56.82
40574;BME280;26283;49.020;8.644;2023-05-22T06:38:05;98939.22;;;19.90;56.82
40574;BME280;26283;49.020;8.644;2023-05-22T06:40:30;98945.50;;;19.90;56.83
40574;BME280;26283;49.020;8.644;2023-05-22T06:42:56;98940.31;;;19.89;56.85
40574;BME280;26283;49.020;8.644;2023-05-22T06:45:22;98940.31;;;19.89;56.86
40574;BME280;26283;49.020;8.644;2023-05-22T06:47:51;98939.22;;;19.90;56.87
40574;BME280;26283;49.020;8.644;2023-05-22T06:50:18;98945.78;;;19.89;56.90
40574;BME280;26283;49.020;8.644;2023-05-22T06:52:43;98943.06;;;19.89;56.89
40574;BME280;26283;49.020;8.644;2023-05-22T06:55:08;98940.31;;;19.89;56.90
40574;BME280;26283;49.020;8.644;2023-05-22T06:57:34;98930.19;;;19.89;56.90
40574;BME280;26283;49.020;8.644;2023-05-22T07:00:00;98939.22;;;19.90;56.92
40574;BME280;26283;49.020;8.644;2023-05-22T07:02:25;98935.66;;;19.89;56.93
40574;BME280;26283;49.020;8.644;2023-05-22T07:04:51;98938.41;;;19.89;56.95
40574;BME280;26283;49.020;8.644;2023-05-22T07:07:17;98939.22;;;19.90;56.98
40574;BME280;26283;49.020;8.644;2023-05-22T07:09:43;98945.50;;;19.90;57.01
40574;BME280;26283;49.020;8.644;2023-05-22T07:12:08;98940.84;;;19.91;57.04
40574;BME280;26283;49.020;8.644;2023-05-22T07:14:34;98949.06;;;19.91;57.05
40574;BME280;26283;49.020;8.644;2023-05-22T07:16:59;98952.59;;;19.91;57.08
40574;BME280;26283;49.020;8.644;2023-05-22T07:19:25;98950.38;;;19.93;57.11
40574;BME280;26283;49.020;8.644;2023-05-22T07:21:50;98946.81;;;19.93;57.11
40574;BME280;26283;49.020;8.644;2023-05-22T07:24:15;98956.66;;;19.94;57.12
40574;BME280;26283;49.020;8.644;2023-05-22T07:26:41;98944.63;;;19.95;57.14
40574;BME280;26283;49.020;8.644;2023-05-22T07:29:10;98959.94;;;19.96;57.15
40574;BME280;26283;49.020;8.644;2023-05-22T07:31:36;98949.81;;;19.96;57.23
40574;BME280;26283;49.020;8.644;2023-05-22T07:34:03;98953.06;;;19.98;57.17
40574;BME280;26283;49.020;8.644;2023-05-22T07:36:28;98952.78;;;20.00;57.26
40574;BME280;26283;49.020;8.644;2023-05-22T07:38:53;98954.13;;;20.02;57.27
40574;BME280;26283;49.020;8.644;2023-05-22T07:41:19;98962.06;;;20.04;57.28
40574;BME280;26283;49.020;8.644;2023-05-22T07:43:46;98965.31;;;20.06;57.28
40574;BME280;26283;49.020;8.644;2023-05-22T07:46:11;98957.66;;;20.08;57.30
40574;BME280;26283;49.020;8.644;2023-05-22T07:48:36;98968.31;;;20.09;57.30
40574;BME280;26283;49.020;8.644;2023-05-22T07:51:02;98965.28;;;20.11;57.33
40574;BME280;26283;49.020;8.644;2023-05-22T07:53:28;98961.94;;;20.14;57.77
40574;BME280;26283;49.020;8.644;2023-05-22T07:55:53;98956.44;;;20.19;58.60
40574;BME280;26283;49.020;8.644;2023-05-22T07:58:19;98959.66;;;20.26;59.15
40574;BME280;26283;49.020;8.644;2023-05-22T08:00:44;98956.06;;;20.31;59.44
40574;BME280;26283;49.020;8.644;2023-05-22T08:03:09;98959.53;;;20.36;59.44
40574;BME280;26283;49.020;8.644;2023-05-22T08:05:36;98962.00;;;20.38;59.35
40574;BME280;26283;49.020;8.644;2023-05-22T08:08:01;98962.53;;;20.40;59.26
40574;BME280;26283;49.020;8.644;2023-05-22T08:10:28;98961.72;;;20.39;59.18
40574;BME280;26283;49.020;8.644;2023-05-22T08:12:53;98968.00;;;20.40;59.10
40574;BME280;26283;49.020;8.644;2023-05-22T08:15:18;98969.94;;;20.39;59.01
40574;BME280;26283;49.020;8.644;2023-05-22T08:17:44;98960.91;;;20.39;58.90
40574;BME280;26283;49.020;8.644;2023-05-22T08:20:10;98966.38;;;20.39;58.78
40574;BME280;26283;49.020;8.644;2023-05-22T08:22:37;98965.28;;;20.40;58.70
40574;BME280;26283;49.020;8.644;2023-05-22T08:25:03;98975.94;;;20.41;58.59
40574;BME280;26283;49.020;8.644;2023-05-22T08:27:29;98968.53;;;20.42;58.47
40574;BME280;26283;49.020;8.644;2023-05-22T08:29:54;98965.50;;;20.43;58.40
40574;BME280;26283;49.020;8.644;2023-05-22T08:32:20;98970.41;;;20.46;58.30
40574;BME280;26283;49.020;8.644;2023-05-22T08:34:45;98971.22;;;20.47;58.21
40574;BME280;26283;49.020;8.644;2023-05-22T08:37:12;98970.94;;;20.48;58.14
40574;BME280;26283;49.020;8.644;2023-05-22T08:39:39;98962.44;;;20.50;58.01
40574;BME280;26283;49.020;8.644;2023-05-22T08:42:04;98967.62;;;20.51;57.94
40574;BME280;26283;49.020;8.644;2023-05-22T08:44:30;98973.63;;;20.53;57.84
40574;BME280;26283;49.020;8.644;2023-05-22T08:46:57;98968.69;;;20.56;57.75
40574;BME280;26283;49.020;8.644;2023-05-22T08:49:24;98973.06;;;20.57;57.66
40574;BME280;26283;49.020;8.644;2023-05-22T08:51:53;98961.50;;;20.60;57.56
40574;BME280;26283;49.020;8.644;2023-05-22T08:54:20;98962.03;;;20.62;57.43
40574;BME280;26283;49.020;8.644;2023-05-22T08:56:49;98964.47;;;20.63;57.30
40574;BME280;26283;49.020;8.644;2023-05-22T08:59:17;98957.06;;;20.64;57.22
40574;BME280;26283;49.020;8.644;2023-05-22T09:01:43;98963.06;;;20.66;57.13
40574;BME280;26283;49.020;8.644;2023-05-22T09:04:10;98964.69;;;20.67;57.07
40574;BME280;26283;49.020;8.644;2023-05-22T09:06:35;98966.03;;;20.69;56.97
40574;BME280;26283;49.020;8.644;2023-05-22T09:09:02;98952.06;;;20.71;56.89
40574;BME280;26283;49.020;8.644;2023-05-22T09:11:28;98958.06;;;20.73;56.83
40574;BME280;26283;49.020;8.644;2023-05-22T09:14:05;98952.00;;;20.76;56.75
40574;BME280;26283;49.020;8.644;2023-05-22T09:16:31;98953.03;;;20.80;56.65
40574;BME280;26283;49.020;8.644;2023-05-22T09:18:56;98955.19;;;20.83;56.52
40574;BME280;26283;49.020;8.644;2023-05-22T09:21:26;98951.88;;;20.86;56.42
40574;BME280;26283;49.020;8.644;2023-05-22T09:23:51;98960.31;;;20.90;56.33
40574;BME280;26283;49.020;8.644;2023-05-22T09:26:17;98961.66;;;20.92;56.25
40574;BME280;26283;49.020;8.644;2023-05-22T09:28:42;98954.78;;;20.95;56.21
40574;BME280;26283;49.020;8.644;2023-05-22T09:31:08;98960.50;;;20.98;56.13
40574;BME280;26283;49.020;8.644;2023-05-22T09:33:35;98953.28;;;21.02;55.97
40574;BME280;26283;49.020;8.644;2023-05-22T09:36:01;98946.69;;;21.03;55.89
40574;BME280;26283;49.020;8.644;2023-05-22T09:38:28;98952.13;;;21.08;55.80
40574;BME280;26283;49.020;8.644;2023-05-22T09:40:55;98947.16;;;21.10;55.74
40574;BME280;26283;49.020;8.644;2023-05-22T09:43:21;98944.94;;;21.12;55.58
40574;BME280;26283;49.020;8.644;2023-05-22T09:45:59;98950.94;;;21.14;55.50
40574;BME280;26283;49.020;8.644;2023-05-22T09:48:25;98943.78;;;21.18;55.56
40574;BME280;26283;49.020;8.644;2023-05-22T09:50:52;98943.50;;;21.20;55.42
40574;BME280;26283;49.020;8.644;2023-05-22T09:53:19;98948.69;;;21.22;55.27
40574;BME280;26283;49.020;8.644;2023-05-22T09:55:50;98943.41;;;21.25;55.15
40574;BME280;26283;49.020;8.644;2023-05-22T09:58:18;98944.75;;;21.28;55.05
40574;BME280;26283;49.020;8.644;2023-05-22T10:00:45;98947.44;;;21.33;56.16
40574;BME280;26283;49.020;8.644;2023-05-22T10:03:10;98950.03;;;21.43;57.05
40574;BME280;26283;49.020;8.644;2023-05-22T10:05:40;98947.94;;;21.53;57.41
40574;BME280;26283;49.020;8.644;2023-05-22T10:08:10;98937.31;;;21.66;58.13
40574;BME280;26283;49.020;8.644;2023-05-22T10:10:39;98943.97;;;21.78;58.30
40574;BME280;26283;49.020;8.644;2023-05-22T10:13:06;98942.16;;;21.87;58.39
40574;BME280;26283;49.020;8.644;2023-05-22T10:15:33;98943.41;;;21.95;58.45
40574;BME280;26283;49.020;8.644;2023-05-22T10:18:00;98940.31;;;22.02;58.49
40574;BME280;26283;49.020;8.644;2023-05-22T10:20:26;98940.22;;;22.07;58.20
40574;BME280;26283;49.020;8.644;2023-05-22T10:22:52;98934.75;;;22.07;57.99
40574;BME280;26283;49.020;8.644;2023-05-22T10:25:18;98935.03;;;22.05;57.91
40574;BME280;26283;49.020;8.644;2023-05-22T10:27:46;98939.94;;;22.08;58.22
40574;BME280;26283;49.020;8.644;2023-05-22T10:30:35;98939.81;;;22.13;58.83
40574;BME280;26283;49.020;8.644;2023-05-22T10:36:03;98930.97;;;22.30;59.43
40574;BME280;26283;49.020;8.644;2023-05-22T10:38:52;98933.34;;;22.37;59.01
40574;BME280;26283;49.020;8.644;2023-05-22T10:41:25;98932.53;;;22.36;58.68
40574;BME280;26283;49.020;8.644;2023-05-22T10:43:50;98928.44;;;22.34;58.60
40574;BME280;26283;49.020;8.644;2023-05-22T10:46:17;98924.38;;;22.31;58.41
40574;BME280;26283;49.020;8.644;2023-05-22T10:48:52;98923.06;;;22.29;58.25
40574;BME280;26283;49.020;8.644;2023-05-22T10:51:20;98920.63;;;22.27;58.03
40574;BME280;26283;49.020;8.644;2023-05-22T10:53:50;98917.38;;;22.25;57.87
40574;BME280;26283;49.020;8.644;2023-05-22T10:56:17;98915.75;;;22.24;57.68
40574;BME280;26283;49.020;8.644;2023-05-22T10:58:45;98905.06;;;22.22;57.46
40574;BME280;26283;49.020;8.644;2023-05-22T11:01:20;98905.88;;;22.23;57.30
40574;BME280;26283;49.020;8.644;2023-05-22T11:03:59;98905.06;;;22.22;57.08
40574;BME280;26283;49.020;8.644;2023-05-22T11:06:37;98910.25;;;22.24;56.95
40574;BME280;26283;49.020;8.644;2023-05-22T11:12:13;98900.91;;;22.25;56.55
40574;BME280;26283;49.020;8.644;2023-05-22T11:17:38;98899.78;;;22.26;56.24
40574;BME280;26283;49.020;8.644;2023-05-22T11:20:23;98902.53;;;22.26;56.09
40574;BME280;26283;49.020;8.644;2023-05-22T11:22:58;98893.19;;;22.27;55.98
40574;BME280;26283;49.020;8.644;2023-05-22T11:25:25;98896.44;;;22.29;55.88
40574;BME280;26283;49.020;8.644;2023-05-22T11:27:53;98892.06;;;22.28;55.75
40574;BME280;26283;49.020;8.644;2023-05-22T11:30:19;98887.06;;;22.30;55.68
40574;BME280;26283;49.020;8.644;2023-05-22T11:32:45;98887.56;;;22.32;55.57
40574;BME280;26283;49.020;8.644;2023-05-22T11:35:15;98884.53;;;22.34;55.47
40574;BME280;26283;49.020;8.644;2023-05-22T11:37:42;98884.22;;;22.35;55.33
40574;BME280;26283;49.020;8.644;2023-05-22T11:40:08;98883.91;;;22.37;55.28
40574;BME280;26283;49.020;8.644;2023-05-22T11:42:34;98869.88;;;22.38;55.24
40574;BME280;26283;49.020;8.644;2023-05-22T11:45:01;98885.25;;;22.39;55.10
40574;BME280;26283;49.020;8.644;2023-05-22T11:47:27;98872.03;;;22.41;55.06
40574;BME280;26283;49.020;8.644;2023-05-22T11:49:56;98874.47;;;22.43;54.95
40574;BME280;26283;49.020;8.644;2023-05-22T11:52:22;98870.59;;;22.44;54.88
40574;BME280;26283;49.020;8.644;2023-05-22T11:54:48;98860.13;;;22.46;54.78
40574;BME280;26283;49.020;8.644;2023-05-22T11:57:14;98862.56;;;22.47;54.68
40574;BME280;26283;49.020;8.644;2023-05-22T11:59:43;98865.31;;;22.47;54.58
40574;BME280;26283;49.020;8.644;2023-05-22T12:02:10;98863.09;;;22.49;54.55
40574;BME280;26283;49.020;8.644;2023-05-22T12:04:36;98859.22;;;22.50;54.41
40574;BME280;26283;49.020;8.644;2023-05-22T12:07:01;98853.72;;;22.50;54.36
40574;BME280;26283;49.020;8.644;2023-05-22T12:09:27;98851.47;;;22.52;54.36
40574;BME280;26283;49.020;8.644;2023-05-22T12:11:56;98856.66;;;22.54;54.29
40574;BME280;26283;49.020;8.644;2023-05-22T12:14:30;98856.34;;;22.55;54.26
40574;BME280;26283;49.020;8.644;2023-05-22T12:16:59;98863.47;;;22.56;54.18
40574;BME280;26283;49.020;8.644;2023-05-22T12:19:25;98860.41;;;22.58;54.08
40574;BME280;26283;49.020;8.644;2023-05-22T12:21:51;98865.59;;;22.60;54.05
40574;BME280;26283;49.020;8.644;2023-05-22T12:24:17;98857.37;;;22.60;53.99
40574;BME280;26283;49.020;8.644;2023-05-22T12:26:51;98863.38;;;22.62;53.97
40574;BME280;26283;49.020;8.644;2023-05-22T12:29:17;98866.63;;;22.64;53.95
40574;BME280;26283;49.020;8.644;2023-05-22T12:31:43;98865.50;;;22.65;53.85
40574;BME280;26283;49.020;8.644;2023-05-22T12:34:10;98864.38;;;22.66;53.81
40574;BME280;26283;49.020;8.644;2023-05-22T12:36:40;98867.63;;;22.68;53.78
40574;BME280;26283;49.020;8.644;2023-05-22T12:39:12;98860.22;;;22.68;53.74
40574;BME280;26283;49.020;8.644;2023-05-22T12:41:38;98855.53;;;22.69;53.71
40574;BME280;26283;49.020;8.644;2023-05-22T12:44:03;98857.16;;;22.70;53.71
40574;BME280;26283;49.020;8.644;2023-05-22T12:46:30;98854.91;;;22.72;53.65
40574;BME280;26283;49.020;8.644;2023-05-22T12:48:56;98855.41;;;22.74;53.57
40574;BME280;26283;49.020;8.644;2023-05-22T12:51:21;98854.62;;;22.73;53.56
40574;BME280;26283;49.020;8.644;2023-05-22T12:53:48;98857.03;;;22.75;53.52
40574;BME280;26283;49.020;8.644;2023-05-22T12:56:13;98856.22;;;22.74;53.47
40574;BME280;26283;49.020;8.644;2023-05-22T12:58:39;98855.91;;;22.76;53.44
40574;BME280;26283;49.020;8.644;2023-05-22T13:01:04;98854.28;;;22.75;53.43
40574;BME280;26283;49.020;8.644;2023-05-22T13:03:30;98849.28;;;22.77;53.39
40574;BME280;26283;49.020;8.644;2023-05-22T13:05:55;98840.78;;;22.78;53.36
40574;BME280;26283;49.020;8.644;2023-05-22T13:08:21;98839.66;;;22.79;53.35
40574;BME280;26283;49.020;8.644;2023-05-22T13:10:47;98833.84;;;22.81;53.32
40574;BME280;26283;49.020;8.644;2023-05-22T13:13:13;98832.72;;;22.82;53.24
40574;BME280;26283;49.020;8.644;2023-05-22T13:15:38;98823.69;;;22.81;53.23
40574;BME280;26283;49.020;8.644;2023-05-22T13:18:04;98822.56;;;22.82;53.21
40574;BME280;26283;49.020;8.644;2023-05-22T13:20:29;98824.19;;;22.83;53.15
40574;BME280;26283;49.020;8.644;2023-05-22T13:22:55;98819.00;;;22.82;53.13
40574;BME280;26283;49.020;8.644;2023-05-22T13:25:20;98822.25;;;22.84;53.10
40574;BME280;26283;49.020;8.644;2023-05-22T13:27:45;98821.94;;;22.85;53.10